Time;durP1;ratioP1;P1;durP2;ratioP2;P2;SDS_P1;SDS_P2;PMS_P1;PMS_P2;Temp;Humidity;BMP_temperature;BMP_pressure;BME280_temperature;BME280_humidity;BME280_pressure;Samples;Min_cycle;Max_cycle;Signal;HPM_P1;HPM_P2
2022/10/26 00:00:15;;;;;;;5.05;3.10;;;;;;;;;;1038396;28;20088;-76
2022/10/26 00:00:46;;;;;;;5.90;3.20;;;;;;;;;;1035956;28;20834;-77
2022/10/26 00:01:18;;;;;;;4.72;2.92;;;;;;;;;;1038644;28;20041;-76
2022/10/26 00:01:48;;;;;;;5.85;3.20;;;;;;;;;;1038585;28;20024;-76
2022/10/26 00:02:20;;;;;;;5.82;2.85;;;;;;;;;;1038309;28;20040;-76
2022/10/26 00:02:51;;;;;;;5.68;3.05;;;;;;;;;;1038714;28;20349;-76
2022/10/26 00:03:22;;;;;;;4.63;3.10;;;;;;;;;;1038492;28;20068;-77
2022/10/26 00:03:54;;;;;;;3.78;2.97;;;;;;;;;;1038758;28;20103;-77
2022/10/26 00:04:25;;;;;;;6.25;4.18;;;;;;;;;;1038576;28;20555;-77
2022/10/26 00:04:56;;;;;;;5.45;3.20;;;;;;;;;;1038295;28;20536;-76
2022/10/26 00:05:27;;;;;;;4.30;2.78;;;;;;;;;;1034480;28;20136;-77
2022/10/26 00:06:08;;;;;;;6.82;3.00;;;;;;;;;;1038396;28;20100;-76
2022/10/26 00:06:39;;;;;;;5.22;2.58;;;;;;;;;;1038795;28;20100;-77
2022/10/26 00:07:10;;;;;;;4.60;2.83;;;;;;;;;;1038655;28;20030;-77
2022/10/26 00:07:41;;;;;;;4.35;2.88;;;;;;;;;;1038338;28;20030;-77
2022/10/26 00:08:12;;;;;;;5.05;2.97;;;;;;;;;;1038609;28;20022;-77
2022/10/26 00:08:44;;;;;;;5.22;3.05;;;;;;;;;;1038647;28;20057;-78
2022/10/26 00:09:15;;;;;;;5.32;2.80;;;;;;;;;;1036215;28;20025;-77
2022/10/26 00:09:46;;;;;;;4.20;3.03;;;;;;;;;;1041886;28;20021;-79
2022/10/26 00:10:17;;;;;;;4.57;2.70;;;;;;;;;;1038635;28;20047;-77
2022/10/26 00:10:47;;;;;;;3.88;2.60;;;;;;;;;;1038197;28;20049;-77
2022/10/26 00:11:19;;;;;;;3.85;2.70;;;;;;;;;;1036746;28;20030;-77
2022/10/26 00:11:50;;;;;;;7.72;3.33;;;;;;;;;;1034670;28;20072;-77
2022/10/26 00:12:21;;;;;;;5.20;2.92;;;;;;;;;;1034551;28;20545;-77
2022/10/26 00:12:51;;;;;;;5.30;3.05;;;;;;;;;;1035244;28;20103;-76
2022/10/26 00:13:22;;;;;;;8.05;3.20;;;;;;;;;;1038420;28;20014;-77
2022/10/26 00:13:53;;;;;;;5.57;2.80;;;;;;;;;;1030895;28;20371;-77
2022/10/26 00:14:24;;;;;;;5.18;2.85;;;;;;;;;;1034388;28;20029;-77
2022/10/26 00:14:55;;;;;;;8.10;3.25;;;;;;;;;;1030227;28;20076;-77
2022/10/26 00:15:26;;;;;;;3.97;2.90;;;;;;;;;;1030546;28;20112;-78
2022/10/26 00:15:57;;;;;;;3.42;2.90;;;;;;;;;;1033971;28;20126;-77
2022/10/26 00:16:28;;;;;;;5.25;3.10;;;;;;;;;;1034782;28;20133;-77
2022/10/26 00:16:59;;;;;;;5.47;3.00;;;;;;;;;;1034427;28;20022;-77
2022/10/26 00:17:30;;;;;;;4.70;3.28;;;;;;;;;;1031001;28;20033;-76
2022/10/26 00:18:01;;;;;;;6.50;2.65;;;;;;;;;;1034442;28;20082;-76
2022/10/26 00:18:32;;;;;;;4.43;2.63;;;;;;;;;;1035596;28;20100;-77
2022/10/26 00:19:03;;;;;;;5.25;3.75;;;;;;;;;;1035857;28;20085;-76
2022/10/26 00:19:34;;;;;;;11.07;3.63;;;;;;;;;;1035436;28;20163;-77
2022/10/26 00:20:05;;;;;;;5.10;2.65;;;;;;;;;;1039064;28;20025;-76
2022/10/26 00:20:36;;;;;;;6.65;2.72;;;;;;;;;;1039319;28;20634;-76
2022/10/26 00:21:08;;;;;;;6.32;3.47;;;;;;;;;;1038977;28;20021;-77
2022/10/26 00:21:39;;;;;;;7.00;2.97;;;;;;;;;;1039796;28;20002;-77
2022/10/26 00:22:09;;;;;;;9.02;2.95;;;;;;;;;;1041138;28;20090;-77
2022/10/26 00:22:40;;;;;;;5.50;2.85;;;;;;;;;;1036911;28;20025;-77
2022/10/26 00:23:11;;;;;;;4.28;2.88;;;;;;;;;;1034638;28;20024;-78
2022/10/26 00:23:42;;;;;;;3.97;2.45;;;;;;;;;;1035267;28;20022;-78
2022/10/26 00:24:14;;;;;;;5.57;3.15;;;;;;;;;;1035672;28;20018;-77
2022/10/26 00:24:45;;;;;;;5.68;3.13;;;;;;;;;;1034779;28;20010;-77
2022/10/26 00:25:16;;;;;;;4.43;2.90;;;;;;;;;;1034958;28;20125;-77
2022/10/26 00:25:54;;;;;;;7.80;2.88;;;;;;;;;;1035461;28;20104;-76
2022/10/26 00:26:25;;;;;;;8.75;3.22;;;;;;;;;;1040121;28;20041;-77
2022/10/26 00:26:56;;;;;;;5.90;2.83;;;;;;;;;;1042823;28;20009;-77
2022/10/26 00:27:27;;;;;;;6.60;2.50;;;;;;;;;;1038639;28;20025;-77
2022/10/26 00:27:58;;;;;;;3.33;2.20;;;;;;;;;;1039263;28;20040;-77
2022/10/26 00:28:29;;;;;;;4.45;2.20;;;;;;;;;;1039049;28;20067;-77
2022/10/26 00:29:00;;;;;;;4.53;3.00;;;;;;;;;;1039386;28;20021;-77
2022/10/26 00:29:31;;;;;;;4.95;2.60;;;;;;;;;;1039178;28;20017;-76
2022/10/26 00:30:02;;;;;;;5.53;2.70;;;;;;;;;;1039069;28;20500;-77
2022/10/26 00:30:33;;;;;;;5.63;3.03;;;;;;;;;;1038817;28;20017;-77
2022/10/26 00:31:06;;;;;;;3.75;2.67;;;;;;;;;;1039267;28;20050;-76
2022/10/26 00:31:38;;;;;;;4.25;2.63;;;;;;;;;;1039149;28;20018;-78
2022/10/26 00:32:09;;;;;;;3.72;2.60;;;;;;;;;;1039074;28;20030;-77
2022/10/26 00:32:40;;;;;;;6.47;2.70;;;;;;;;;;1039171;28;20104;-76
2022/10/26 00:33:12;;;;;;;5.60;2.85;;;;;;;;;;1039195;28;20715;-78
2022/10/26 00:33:43;;;;;;;6.10;2.72;;;;;;;;;;1039097;28;20029;-76
2022/10/26 00:34:14;;;;;;;4.50;2.65;;;;;;;;;;1036128;28;20022;-77
2022/10/26 00:34:45;;;;;;;4.63;2.70;;;;;;;;;;1034831;28;20022;-77
2022/10/26 00:35:16;;;;;;;6.18;2.78;;;;;;;;;;1031113;28;20038;-76
2022/10/26 00:35:48;;;;;;;3.25;2.72;;;;;;;;;;1033098;28;20058;-78
2022/10/26 00:36:19;;;;;;;3.15;2.35;;;;;;;;;;1039323;28;20101;-76
2022/10/26 00:36:50;;;;;;;7.38;3.25;;;;;;;;;;1039901;28;20156;-76
2022/10/26 00:37:21;;;;;;;5.60;3.00;;;;;;;;;;1043243;28;20192;-75
2022/10/26 00:37:55;;;;;;;4.07;2.47;;;;;;;;;;1038999;28;20120;-77
2022/10/26 00:38:26;;;;;;;6.57;3.33;;;;;;;;;;1039772;28;20537;-77
2022/10/26 00:38:57;;;;;;;6.78;2.58;;;;;;;;;;1039124;28;20095;-77
2022/10/26 00:39:28;;;;;;;4.80;2.50;;;;;;;;;;1032428;28;20096;-76
2022/10/26 00:39:59;;;;;;;4.65;3.35;;;;;;;;;;1035141;28;20112;-78
2022/10/26 00:40:30;;;;;;;8.63;3.03;;;;;;;;;;1035652;28;20018;-77
2022/10/26 00:41:01;;;;;;;5.28;2.47;;;;;;;;;;1038939;28;20501;-78
2022/10/26 00:41:33;;;;;;;6.20;2.80;;;;;;;;;;1039273;28;20097;-78
2022/10/26 00:42:04;;;;;;;5.45;2.45;;;;;;;;;;1035462;28;20030;-78
2022/10/26 00:42:38;;;;;;;7.78;2.63;;;;;;;;;;1034921;28;20112;-76
2022/10/26 00:43:29;;;;;;;4.88;2.67;;;;;;;;;;1031457;28;20038;-76
2022/10/26 00:44:00;;;;;;;4.85;2.28;;;;;;;;;;1024846;28;20031;-78
2022/10/26 00:44:55;;;;;;;5.97;3.20;;;;;;;;;;1038936;28;20041;-78
2022/10/26 00:45:29;;;;;;;5.13;3.03;;;;;;;;;;1031004;28;20058;-76
2022/10/26 00:46:01;;;;;;;3.17;2.40;;;;;;;;;;1038697;28;20025;-76
2022/10/26 00:46:34;;;;;;;7.07;3.25;;;;;;;;;;1038776;28;20073;-76
2022/10/26 00:47:05;;;;;;;4.40;2.60;;;;;;;;;;1039328;28;20052;-77
2022/10/26 00:47:46;;;;;;;5.50;2.85;;;;;;;;;;1038965;28;20032;-76
2022/10/26 00:48:37;;;;;;;7.22;3.10;;;;;;;;;;1038927;28;20045;-77
2022/10/26 00:49:12;;;;;;;6.68;2.97;;;;;;;;;;1034873;28;20063;-77
2022/10/26 00:49:46;;;;;;;4.03;3.30;;;;;;;;;;1030896;28;20078;-78
2022/10/26 00:50:30;;;;;;;5.35;2.55;;;;;;;;;;1030703;28;20029;-78
2022/10/26 00:51:05;;;;;;;3.55;2.60;;;;;;;;;;1036600;28;20684;-77
2022/10/26 00:51:39;;;;;;;6.25;2.60;;;;;;;;;;1043004;28;20025;-78
2022/10/26 00:52:10;;;;;;;4.45;2.67;;;;;;;;;;1040262;28;20029;-76
2022/10/26 00:52:42;;;;;;;4.32;2.85;;;;;;;;;;1039190;28;20104;-76
2022/10/26 00:53:13;;;;;;;4.20;2.92;;;;;;;;;;1039327;28;20092;-77
2022/10/26 00:53:44;;;;;;;5.30;2.63;;;;;;;;;;1038654;28;20546;-78
2022/10/26 00:54:19;;;;;;;5.70;3.15;;;;;;;;;;1039090;28;20431;-77
2022/10/26 00:54:51;;;;;;;5.03;2.95;;;;;;;;;;1035058;28;20030;-76
2022/10/26 00:55:23;;;;;;;5.65;3.13;;;;;;;;;;1035725;28;20125;-78
2022/10/26 00:55:55;;;;;;;4.60;2.50;;;;;;;;;;1034749;28;20070;-77
2022/10/26 00:56:26;;;;;;;5.53;2.78;;;;;;;;;;1030637;28;20034;-77
2022/10/26 00:56:58;;;;;;;5.28;2.80;;;;;;;;;;1031350;28;20027;-77
2022/10/26 00:57:29;;;;;;;4.72;2.50;;;;;;;;;;1031672;28;20571;-77
2022/10/26 00:58:02;;;;;;;7.35;3.05;;;;;;;;;;1035335;28;20531;-77
2022/10/26 00:58:34;;;;;;;6.10;2.58;;;;;;;;;;1039298;28;20022;-77
2022/10/26 00:59:06;;;;;;;3.83;2.42;;;;;;;;;;1034912;28;20033;-77
2022/10/26 00:59:37;;;;;;;3.92;2.67;;;;;;;;;;1038588;28;20201;-76
2022/10/26 01:00:08;;;;;;;4.88;2.90;;;;;;;;;;1036364;28;20870;-78
2022/10/26 01:00:42;;;;;;;2.97;2.10;;;;;;;;;;1035273;28;20026;-77
2022/10/26 01:01:13;;;;;;;3.72;2.25;;;;;;;;;;1036277;28;20037;-77
2022/10/26 01:01:45;;;;;;;4.10;2.83;;;;;;;;;;1039424;28;20071;-78
2022/10/26 01:02:16;;;;;;;2.88;2.13;;;;;;;;;;1040138;28;20121;-79
2022/10/26 01:02:48;;;;;;;4.10;2.53;;;;;;;;;;1043891;28;20021;-77
2022/10/26 01:03:20;;;;;;;4.32;3.08;;;;;;;;;;1043194;28;20072;-77
2022/10/26 01:03:51;;;;;;;4.63;2.70;;;;;;;;;;1042139;28;20053;-77
2022/10/26 01:04:22;;;;;;;5.55;3.08;;;;;;;;;;1039245;28;20051;-77
2022/10/26 01:04:53;;;;;;;5.53;3.08;;;;;;;;;;1039307;28;20037;-77
2022/10/26 01:05:25;;;;;;;4.85;2.80;;;;;;;;;;1039770;28;20034;-77
2022/10/26 01:05:57;;;;;;;5.47;3.00;;;;;;;;;;1039669;28;20048;-76
2022/10/26 01:06:28;;;;;;;3.50;2.53;;;;;;;;;;1038753;28;20671;-77
2022/10/26 01:07:00;;;;;;;6.70;2.78;;;;;;;;;;1035169;28;20441;-77
2022/10/26 01:07:32;;;;;;;8.43;3.35;;;;;;;;;;1035460;28;20059;-77
2022/10/26 01:08:03;;;;;;;4.32;2.60;;;;;;;;;;1034594;28;20022;-78
2022/10/26 01:08:34;;;;;;;3.63;2.70;;;;;;;;;;1034893;28;20423;-77
2022/10/26 01:09:05;;;;;;;6.40;2.90;;;;;;;;;;1031457;28;20528;-77
2022/10/26 01:09:36;;;;;;;6.10;2.67;;;;;;;;;;1035153;28;20026;-78
2022/10/26 01:10:08;;;;;;;3.85;2.47;;;;;;;;;;1043463;28;20025;-76
2022/10/26 01:10:39;;;;;;;4.97;2.50;;;;;;;;;;1043344;28;20021;-78
2022/10/26 01:11:11;;;;;;;2.70;2.10;;;;;;;;;;1040421;28;20060;-76
2022/10/26 01:11:42;;;;;;;5.28;3.13;;;;;;;;;;1034776;28;20018;-77
2022/10/26 01:12:13;;;;;;;4.40;2.83;;;;;;;;;;1035062;28;20053;-77
2022/10/26 01:12:45;;;;;;;4.30;3.28;;;;;;;;;;1035105;28;20530;-78
2022/10/26 01:13:16;;;;;;;4.10;2.88;;;;;;;;;;1037428;28;20030;-77
2022/10/26 01:13:48;;;;;;;5.15;2.85;;;;;;;;;;1043004;28;20780;-76
2022/10/26 01:14:19;;;;;;;4.10;2.95;;;;;;;;;;1038541;28;20017;-76
2022/10/26 01:14:51;;;;;;;6.25;3.13;;;;;;;;;;1031286;28;20054;-77
2022/10/26 01:15:24;;;;;;;4.00;3.00;;;;;;;;;;1036140;28;20026;-77
2022/10/26 01:16:02;;;;;;;4.35;2.45;;;;;;;;;;1031616;28;20053;-78
2022/10/26 01:16:41;;;;;;;6.30;2.80;;;;;;;;;;1037851;28;20013;-78
2022/10/26 01:17:29;;;;;;;5.32;3.13;;;;;;;;;;1039331;28;20056;-77
2022/10/26 01:18:05;;;;;;;5.88;2.70;;;;;;;;;;1037963;28;20034;-76
2022/10/26 01:18:56;;;;;;;4.45;2.70;;;;;;;;;;1035329;28;20021;-77
2022/10/26 01:19:46;;;;;;;2.70;2.20;;;;;;;;;;1026644;28;21299;-77
2022/10/26 01:20:17;;;;;;;3.95;2.60;;;;;;;;;;1032712;28;20587;-77
2022/10/26 01:20:57;;;;;;;5.17;2.87;;;;;;;;;;1039389;28;20532;-76
2022/10/26 01:21:42;;;;;;;6.43;2.92;;;;;;;;;;1039199;28;20782;-77
2022/10/26 01:22:25;;;;;;;7.25;3.13;;;;;;;;;;1035552;28;20060;-78
2022/10/26 01:23:03;;;;;;;4.57;2.45;;;;;;;;;;1039616;28;20041;-78
2022/10/26 01:23:41;;;;;;;4.38;2.50;;;;;;;;;;1039243;28;20057;-77
2022/10/26 01:24:22;;;;;;;5.63;2.67;;;;;;;;;;1034921;28;20051;-76
2022/10/26 01:25:16;;;;;;;4.07;2.80;;;;;;;;;;1031544;28;20035;-78
2022/10/26 01:25:52;;;;;;;4.78;2.78;;;;;;;;;;1035512;28;20017;-78
2022/10/26 01:26:32;;;;;;;4.32;2.83;;;;;;;;;;1035004;28;20072;-76
2022/10/26 01:27:22;;;;;;;5.45;2.60;;;;;;;;;;1034829;28;20033;-77
2022/10/26 01:27:53;;;;;;;7.22;3.67;;;;;;;;;;1035271;28;20075;-77
2022/10/26 01:28:39;;;;;;;6.80;2.72;;;;;;;;;;1035807;28;20108;-75
2022/10/26 01:29:13;;;;;;;6.70;3.13;;;;;;;;;;1035759;28;20030;-77
2022/10/26 01:30:03;;;;;;;5.47;3.03;;;;;;;;;;1034210;28;20121;-79
2022/10/26 01:30:38;;;;;;;4.53;3.00;;;;;;;;;;1038721;28;20045;-77
2022/10/26 01:31:11;;;;;;;5.55;2.60;;;;;;;;;;1043007;28;20032;-76
2022/10/26 01:31:44;;;;;;;5.68;3.30;;;;;;;;;;1038961;28;20031;-75
2022/10/26 01:32:47;;;;;;;3.70;2.40;;;;;;;;;;1042194;28;20025;-77
2022/10/26 01:33:24;;;;;;;5.70;3.22;;;;;;;;;;1031341;28;20054;-77
2022/10/26 01:34:04;;;;;;;4.82;3.13;;;;;;;;;;1030456;28;20465;-77
2022/10/26 01:34:42;;;;;;;5.90;3.60;;;;;;;;;;1045878;28;20043;-77
2022/10/26 01:35:13;;;;;;;6.13;3.92;;;;;;;;;;1047301;28;20063;-78
2022/10/26 01:36:20;;;;;;;7.28;3.35;;;;;;;;;;1043320;28;20056;-76
2022/10/26 01:36:59;;;;;;;5.52;3.28;;;;;;;;;;1030527;28;20026;-77
2022/10/26 01:37:34;;;;;;;5.35;2.90;;;;;;;;;;1029547;28;20030;-77
2022/10/26 01:38:25;;;;;;;5.60;2.75;;;;;;;;;;1030724;28;20660;-76
2022/10/26 01:38:56;;;;;;;5.80;2.90;;;;;;;;;;1036833;28;20044;-77
2022/10/26 01:39:29;;;;;;;7.18;3.15;;;;;;;;;;1040625;28;20039;-76
2022/10/26 01:40:12;;;;;;;3.50;2.58;;;;;;;;;;1043353;28;20020;-78
2022/10/26 01:40:47;;;;;;;4.32;2.95;;;;;;;;;;1039700;28;20394;-76
2022/10/26 01:41:23;;;;;;;4.15;2.80;;;;;;;;;;1039087;28;20017;-77
2022/10/26 01:41:57;;;;;;;5.00;3.17;;;;;;;;;;1039111;28;20034;-77
2022/10/26 01:42:30;;;;;;;4.63;2.80;;;;;;;;;;1037413;28;20543;-77
2022/10/26 01:43:03;;;;;;;3.72;2.47;;;;;;;;;;1039063;28;20140;-77
2022/10/26 01:43:36;;;;;;;4.63;2.55;;;;;;;;;;1039579;28;20048;-76
2022/10/26 01:44:27;;;;;;;3.25;2.42;;;;;;;;;;1041053;28;20075;-77
2022/10/26 01:45:04;;;;;;;3.78;2.60;;;;;;;;;;1039215;28;20151;-76
2022/10/26 01:45:37;;;;;;;7.85;3.75;;;;;;;;;;1038618;28;20084;-79
2022/10/26 01:46:09;;;;;;;3.60;2.33;;;;;;;;;;1035264;28;20026;-77
2022/10/26 01:46:42;;;;;;;4.25;2.60;;;;;;;;;;1036700;28;20251;-78
2022/10/26 01:47:15;;;;;;;3.47;2.80;;;;;;;;;;1034662;28;20136;-78
2022/10/26 01:47:47;;;;;;;3.90;2.80;;;;;;;;;;1035906;28;20026;-78
2022/10/26 01:48:20;;;;;;;9.25;3.38;;;;;;;;;;1034986;28;20025;-78
2022/10/26 01:48:56;;;;;;;6.82;2.83;;;;;;;;;;1031835;28;20134;-76
2022/10/26 01:49:28;;;;;;;6.50;3.45;;;;;;;;;;1030677;28;20031;-78
2022/10/26 01:50:00;;;;;;;6.20;3.38;;;;;;;;;;1032385;28;20014;-77
2022/10/26 01:50:31;;;;;;;7.10;2.65;;;;;;;;;;1036236;28;20449;-77
2022/10/26 01:51:04;;;;;;;5.95;3.03;;;;;;;;;;1038986;28;20022;-78
2022/10/26 01:51:35;;;;;;;4.20;2.22;;;;;;;;;;1035208;28;20022;-78
2022/10/26 01:52:08;;;;;;;4.22;2.92;;;;;;;;;;1035272;28;20388;-77
2022/10/26 01:52:39;;;;;;;7.47;3.50;;;;;;;;;;1041941;28;20056;-77
2022/10/26 01:53:14;;;;;;;4.75;3.20;;;;;;;;;;1038919;28;20113;-77
2022/10/26 01:53:45;;;;;;;3.60;2.60;;;;;;;;;;1039169;28;20059;-78
2022/10/26 01:54:16;;;;;;;4.93;3.05;;;;;;;;;;1039156;28;20021;-78
2022/10/26 01:54:47;;;;;;;4.38;2.83;;;;;;;;;;1039132;28;20025;-77
2022/10/26 01:55:37;;;;;;;3.58;2.78;;;;;;;;;;1039304;28;20029;-76
2022/10/26 01:56:12;;;;;;;3.63;2.70;;;;;;;;;;1039081;28;20025;-77
2022/10/26 01:56:49;;;;;;;5.97;3.25;;;;;;;;;;1039082;28;20033;-77
2022/10/26 01:57:21;;;;;;;7.88;2.85;;;;;;;;;;1039164;28;20037;-76
2022/10/26 01:57:53;;;;;;;5.63;2.90;;;;;;;;;;1039022;28;20029;-77
2022/10/26 01:58:47;;;;;;;4.82;2.50;;;;;;;;;;1039297;28;20025;-77
2022/10/26 01:59:36;;;;;;;4.38;2.78;;;;;;;;;;1030453;28;20026;-77
2022/10/26 02:00:09;;;;;;;4.50;2.60;;;;;;;;;;1033559;28;20030;-78
2022/10/26 02:00:45;;;;;;;5.78;2.83;;;;;;;;;;1035003;28;20577;-77
2022/10/26 02:01:32;;;;;;;5.85;3.00;;;;;;;;;;1034547;28;20053;-77
2022/10/26 02:02:02;;;;;;;7.22;3.28;;;;;;;;;;1030553;28;20054;-76
2022/10/26 02:02:54;;;;;;;4.90;2.27;;;;;;;;;;1033213;28;20088;-77
2022/10/26 02:03:35;;;;;;;5.47;3.35;;;;;;;;;;1034934;28;20352;-77
2022/10/26 02:04:45;;;;;;;4.88;3.15;;;;;;;;;;1038431;28;20479;-78
2022/10/26 02:05:28;;;;;;;3.85;2.85;;;;;;;;;;1030438;28;20447;-78
2022/10/26 02:06:18;;;;;;;6.75;2.92;;;;;;;;;;1030677;28;20031;-77
2022/10/26 02:06:59;;;;;;;7.20;3.53;;;;;;;;;;1030530;28;20038;-77
2022/10/26 02:07:30;;;;;;;5.07;3.60;;;;;;;;;;1030224;28;20052;-77
2022/10/26 02:08:08;;;;;;;4.35;3.33;;;;;;;;;;1026790;28;20400;-77
2022/10/26 02:08:57;;;;;;;7.57;3.90;;;;;;;;;;1026538;28;20133;-78
2022/10/26 02:09:43;;;;;;;6.30;3.45;;;;;;;;;;1024015;28;20126;-77
2022/10/26 02:10:22;;;;;;;5.13;3.22;;;;;;;;;;1026578;28;20487;-77
2022/10/26 02:10:59;;;;;;;6.12;3.56;;;;;;;;;;1026202;28;20105;-78
2022/10/26 02:11:33;;;;;;;4.25;2.70;;;;;;;;;;1035256;28;20034;-77
2022/10/26 02:12:13;;;;;;;5.13;3.20;;;;;;;;;;1034833;28;20029;-76
2022/10/26 02:13:00;;;;;;;5.97;3.08;;;;;;;;;;1033364;28;20072;-78
2022/10/26 02:13:36;;;;;;;5.13;2.60;;;;;;;;;;1034733;28;20036;-77
2022/10/26 02:14:11;;;;;;;4.70;2.95;;;;;;;;;;1035260;28;20101;-77
2022/10/26 02:15:05;;;;;;;6.95;3.35;;;;;;;;;;1036826;28;20117;-76
2022/10/26 02:15:42;;;;;;;6.57;4.13;;;;;;;;;;1034777;28;20464;-78
2022/10/26 02:16:22;;;;;;;3.70;2.90;;;;;;;;;;1035320;28;20057;-76
2022/10/26 02:16:55;;;;;;;6.07;3.60;;;;;;;;;;1039104;28;20056;-76
2022/10/26 02:17:32;;;;;;;7.47;3.72;;;;;;;;;;1038897;28;20083;-78
2022/10/26 02:18:05;;;;;;;3.25;2.85;;;;;;;;;;1036339;28;20025;-77
2022/10/26 02:18:36;;;;;;;5.75;2.75;;;;;;;;;;1039272;28;20551;-78
2022/10/26 02:19:17;;;;;;;6.03;2.97;;;;;;;;;;1039174;28;20501;-77
2022/10/26 02:19:54;;;;;;;4.97;2.83;;;;;;;;;;1036686;28;20410;-77
2022/10/26 02:20:26;;;;;;;4.13;3.20;;;;;;;;;;1039051;28;20120;-77
2022/10/26 02:21:03;;;;;;;4.50;3.35;;;;;;;;;;1038942;28;20037;-77
2022/10/26 02:21:45;;;;;;;7.38;3.50;;;;;;;;;;1039227;28;20021;-77
2022/10/26 02:22:23;;;;;;;4.93;3.42;;;;;;;;;;1037568;28;20029;-77
2022/10/26 02:22:55;;;;;;;4.75;3.58;;;;;;;;;;1039235;28;20033;-77
2022/10/26 02:23:27;;;;;;;4.72;3.20;;;;;;;;;;1038968;28;20392;-77
2022/10/26 02:23:59;;;;;;;5.50;3.38;;;;;;;;;;1039166;28;20104;-77
2022/10/26 02:24:31;;;;;;;6.78;3.13;;;;;;;;;;1039523;28;20104;-78
2022/10/26 02:25:06;;;;;;;5.88;3.30;;;;;;;;;;1035577;28;20504;-77
2022/10/26 02:25:40;;;;;;;5.80;3.83;;;;;;;;;;1035125;28;20120;-77
2022/10/26 02:26:13;;;;;;;7.75;3.30;;;;;;;;;;1034421;28;20030;-77
2022/10/26 02:26:45;;;;;;;6.50;3.25;;;;;;;;;;1038590;28;20508;-77
2022/10/26 02:27:19;;;;;;;5.50;3.25;;;;;;;;;;1038695;28;20372;-77
2022/10/26 02:27:53;;;;;;;9.25;3.35;;;;;;;;;;1038897;28;20021;-77
2022/10/26 02:28:30;;;;;;;6.20;2.97;;;;;;;;;;1035849;28;20033;-77
2022/10/26 02:29:04;;;;;;;4.50;2.97;;;;;;;;;;1030827;28;20026;-77
2022/10/26 02:29:36;;;;;;;8.95;3.90;;;;;;;;;;1032985;28;20035;-77
2022/10/26 02:30:08;;;;;;;6.07;3.47;;;;;;;;;;1037687;28;20022;-77
2022/10/26 02:30:40;;;;;;;6.78;4.00;;;;;;;;;;1035611;28;20657;-77
2022/10/26 02:31:13;;;;;;;6.00;3.38;;;;;;;;;;1038779;28;20034;-77
2022/10/26 02:31:45;;;;;;;5.45;3.30;;;;;;;;;;1038123;28;20380;-78
2022/10/26 02:32:18;;;;;;;5.10;3.20;;;;;;;;;;1035321;28;20052;-77
2022/10/26 02:32:52;;;;;;;4.72;3.20;;;;;;;;;;1031521;28;20060;-77
2022/10/26 02:33:23;;;;;;;5.50;3.40;;;;;;;;;;1030676;28;20024;-78
2022/10/26 02:33:56;;;;;;;3.95;3.10;;;;;;;;;;1034546;28;20533;-78
2022/10/26 02:34:28;;;;;;;6.35;3.70;;;;;;;;;;1036337;28;20014;-78
2022/10/26 02:35:01;;;;;;;4.55;3.17;;;;;;;;;;1038958;28;20088;-77
2022/10/26 02:35:34;;;;;;;5.57;3.42;;;;;;;;;;1041067;28;20024;-78
2022/10/26 02:36:06;;;;;;;6.95;3.65;;;;;;;;;;1042904;28;20079;-77
2022/10/26 02:36:40;;;;;;;6.97;3.40;;;;;;;;;;1042962;28;20020;-76
2022/10/26 02:37:13;;;;;;;7.07;3.45;;;;;;;;;;1043505;28;20037;-77
2022/10/26 02:37:45;;;;;;;5.35;3.58;;;;;;;;;;1042680;28;20048;-77
2022/10/26 02:38:17;;;;;;;3.80;2.63;;;;;;;;;;1043007;28;20021;-77
2022/10/26 02:38:49;;;;;;;4.78;3.00;;;;;;;;;;1039370;28;20028;-77
2022/10/26 02:39:20;;;;;;;5.30;3.10;;;;;;;;;;1043033;28;20198;-77
2022/10/26 02:39:52;;;;;;;3.90;2.47;;;;;;;;;;1038775;28;20174;-77
2022/10/26 02:40:26;;;;;;;5.60;2.75;;;;;;;;;;1035167;28;20014;-77
2022/10/26 02:40:57;;;;;;;4.38;3.15;;;;;;;;;;1032703;28;20041;-77
2022/10/26 02:41:29;;;;;;;4.78;3.75;;;;;;;;;;1031575;28;20029;-76
2022/10/26 02:42:02;;;;;;;9.88;3.40;;;;;;;;;;1034740;28;20072;-77
2022/10/26 02:42:33;;;;;;;5.88;3.20;;;;;;;;;;1036336;28;20064;-77
2022/10/26 02:43:06;;;;;;;5.00;3.42;;;;;;;;;;1031387;28;20018;-77
2022/10/26 02:43:41;;;;;;;6.13;3.58;;;;;;;;;;1034921;28;20033;-77
2022/10/26 02:44:24;;;;;;;4.80;2.80;;;;;;;;;;1035430;28;20045;-77
2022/10/26 02:44:57;;;;;;;6.10;3.15;;;;;;;;;;1039712;28;20021;-78
2022/10/26 02:45:32;;;;;;;5.85;3.33;;;;;;;;;;1037939;28;20124;-77
2022/10/26 02:46:06;;;;;;;6.55;3.63;;;;;;;;;;1035900;28;20030;-77
2022/10/26 02:46:38;;;;;;;6.32;3.38;;;;;;;;;;1030773;28;20534;-75
2022/10/26 02:47:09;;;;;;;4.97;3.22;;;;;;;;;;1028111;28;20141;-78
2022/10/26 02:47:40;;;;;;;6.55;3.35;;;;;;;;;;1035769;28;20018;-77
2022/10/26 02:48:11;;;;;;;5.60;3.20;;;;;;;;;;1038956;28;20021;-78
2022/10/26 02:48:42;;;;;;;6.00;2.85;;;;;;;;;;1038829;28;20028;-78
2022/10/26 02:49:13;;;;;;;4.10;2.88;;;;;;;;;;1038818;28;20411;-77
2022/10/26 02:49:44;;;;;;;3.85;3.13;;;;;;;;;;1039294;28;20519;-77
2022/10/26 02:50:15;;;;;;;6.28;3.40;;;;;;;;;;1038731;28;20543;-76
2022/10/26 02:50:46;;;;;;;6.82;3.38;;;;;;;;;;1035333;28;20076;-76
2022/10/26 02:51:20;;;;;;;4.60;3.25;;;;;;;;;;1034937;28;20089;-77
2022/10/26 02:52:09;;;;;;;6.90;3.08;;;;;;;;;;1034755;28;20022;-77
2022/10/26 02:52:47;;;;;;;5.22;2.97;;;;;;;;;;1038246;28;20061;-77
2022/10/26 02:53:20;;;;;;;6.88;3.40;;;;;;;;;;1034727;28;20034;-77
2022/10/26 02:53:57;;;;;;;4.57;3.03;;;;;;;;;;1034487;28;20062;-78
2022/10/26 02:54:46;;;;;;;6.80;3.13;;;;;;;;;;1036810;28;20393;-78
2022/10/26 02:55:23;;;;;;;6.28;3.40;;;;;;;;;;1034976;28;20571;-77
2022/10/26 02:55:54;;;;;;;6.88;3.53;;;;;;;;;;1036399;28;20646;-76
2022/10/26 02:56:45;;;;;;;5.40;3.03;;;;;;;;;;1034696;28;20037;-77
2022/10/26 02:57:19;;;;;;;5.82;3.90;;;;;;;;;;1034519;28;20033;-76
2022/10/26 02:57:52;;;;;;;6.05;3.28;;;;;;;;;;1034449;28;20591;-77
2022/10/26 02:58:25;;;;;;;5.57;2.80;;;;;;;;;;1038569;28;20435;-76
2022/10/26 02:58:59;;;;;;;4.82;3.45;;;;;;;;;;1038585;28;20119;-76
2022/10/26 02:59:32;;;;;;;4.60;2.92;;;;;;;;;;1038561;28;20107;-76
2022/10/26 03:00:03;;;;;;;4.30;3.05;;;;;;;;;;1034926;28;20033;-77
2022/10/26 03:00:34;;;;;;;5.53;2.75;;;;;;;;;;1033879;28;20025;-77
2022/10/26 03:01:05;;;;;;;5.40;3.35;;;;;;;;;;1033684;28;20061;-77
2022/10/26 03:01:36;;;;;;;6.40;4.40;;;;;;;;;;1038944;28;20021;-76
2022/10/26 03:02:07;;;;;;;4.75;3.15;;;;;;;;;;1038471;28;20079;-77
2022/10/26 03:02:39;;;;;;;5.03;3.13;;;;;;;;;;1040627;28;20103;-76
2022/10/26 03:03:10;;;;;;;9.68;3.75;;;;;;;;;;1042593;28;20037;-77
2022/10/26 03:03:41;;;;;;;5.95;3.35;;;;;;;;;;1039910;28;20785;-77
2022/10/26 03:04:12;;;;;;;4.03;2.55;;;;;;;;;;1042428;28;20079;-77
2022/10/26 03:04:43;;;;;;;5.78;3.00;;;;;;;;;;1042913;28;20037;-76
2022/10/26 03:05:16;;;;;;;4.03;2.47;;;;;;;;;;1042947;28;20511;-76
2022/10/26 03:05:47;;;;;;;5.13;3.40;;;;;;;;;;1042898;28;20025;-77
2022/10/26 03:06:22;;;;;;;3.50;2.75;;;;;;;;;;1038865;28;20495;-77
2022/10/26 03:06:53;;;;;;;4.15;2.90;;;;;;;;;;1037961;28;20495;-77
2022/10/26 03:07:24;;;;;;;6.55;3.38;;;;;;;;;;1034679;28;20084;-76
2022/10/26 03:07:56;;;;;;;4.25;3.10;;;;;;;;;;1042202;28;20074;-76
2022/10/26 03:08:27;;;;;;;3.88;2.63;;;;;;;;;;1038347;28;20029;-77
2022/10/26 03:08:58;;;;;;;3.58;2.70;;;;;;;;;;1038988;28;20026;-76
2022/10/26 03:09:29;;;;;;;5.28;3.25;;;;;;;;;;1038365;28;20055;-77
2022/10/26 03:10:00;;;;;;;4.47;2.85;;;;;;;;;;1039191;28;20047;-77
2022/10/26 03:10:32;;;;;;;6.22;2.95;;;;;;;;;;1039229;28;20563;-76
2022/10/26 03:11:03;;;;;;;4.93;3.22;;;;;;;;;;1037457;28;20700;-78
2022/10/26 03:11:34;;;;;;;6.57;2.90;;;;;;;;;;1038607;28;20056;-77
2022/10/26 03:12:05;;;;;;;5.32;3.47;;;;;;;;;;1038750;28;20565;-78
2022/10/26 03:12:36;;;;;;;4.82;3.28;;;;;;;;;;1038568;28;20487;-78
2022/10/26 03:13:07;;;;;;;3.78;3.03;;;;;;;;;;1043073;28;20452;-78
2022/10/26 03:13:38;;;;;;;4.55;2.45;;;;;;;;;;1043117;28;20029;-78
2022/10/26 03:14:09;;;;;;;3.95;2.60;;;;;;;;;;1042743;28;20025;-77
2022/10/26 03:14:40;;;;;;;4.55;2.92;;;;;;;;;;1040005;28;20103;-78
2022/10/26 03:15:11;;;;;;;4.00;2.63;;;;;;;;;;1038910;28;20084;-78
2022/10/26 03:15:42;;;;;;;7.05;3.67;;;;;;;;;;1034530;28;20193;-76
2022/10/26 03:16:13;;;;;;;4.75;3.25;;;;;;;;;;1028887;28;20034;-76
2022/10/26 03:16:44;;;;;;;6.70;3.45;;;;;;;;;;1030584;28;20113;-77
2022/10/26 03:17:15;;;;;;;6.57;3.55;;;;;;;;;;1034954;28;20541;-76
2022/10/26 03:17:46;;;;;;;4.43;2.47;;;;;;;;;;1038668;28;20025;-78
2022/10/26 03:18:17;;;;;;;6.68;3.70;;;;;;;;;;1043293;28;20388;-77
2022/10/26 03:18:48;;;;;;;4.95;2.72;;;;;;;;;;1038641;28;20021;-77
2022/10/26 03:19:19;;;;;;;4.28;2.65;;;;;;;;;;1038792;28;20026;-77
2022/10/26 03:19:50;;;;;;;5.68;3.25;;;;;;;;;;1038211;28;20021;-77
2022/10/26 03:20:21;;;;;;;5.03;2.63;;;;;;;;;;1039022;28;20040;-77
2022/10/26 03:20:52;;;;;;;6.07;3.17;;;;;;;;;;1038555;28;20029;-77
2022/10/26 03:21:23;;;;;;;6.03;3.40;;;;;;;;;;1038587;28;20026;-77
2022/10/26 03:21:54;;;;;;;5.18;2.90;;;;;;;;;;1038836;28;20017;-77
2022/10/26 03:22:24;;;;;;;5.07;3.00;;;;;;;;;;1039012;28;20142;-77
2022/10/26 03:22:57;;;;;;;4.80;3.25;;;;;;;;;;1039776;28;20049;-76
2022/10/26 03:23:28;;;;;;;5.05;2.60;;;;;;;;;;1043256;28;20024;-76
2022/10/26 03:23:59;;;;;;;5.30;3.03;;;;;;;;;;1043135;28;20032;-76
2022/10/26 03:24:30;;;;;;;4.40;3.22;;;;;;;;;;1042660;28;20079;-76
2022/10/26 03:25:01;;;;;;;6.60;3.78;;;;;;;;;;1042690;28;20753;-77
2022/10/26 03:25:32;;;;;;;4.20;3.05;;;;;;;;;;1043379;28;20028;-76